Time;durP1;ratioP1;P1;durP2;ratioP2;P2;SDS_P1;SDS_P2;PMS_P1;PMS_P2;Temp;Humidity;BMP_temperature;BMP_pressure;BME280_temperature;BME280_humidity;BME280_pressure;Samples;Min_cycle;Max_cycle;Signal;HPM_P1;HPM_P2
2022/02/17 00:01:41;;;;;;;;;;;;;;;22.18;25.91;97616.31;5132767;27;1412;-79
2022/02/17 00:04:06;;;;;;;;;;;;;;;22.12;26.71;97609.59;5131835;27;1232;-79
2022/02/17 00:06:32;;;;;;;;;;;;;;;22.56;25.82;97616.13;5130554;27;1066;-79
2022/02/17 00:08:57;;;;;;;;;;;;;;;22.68;25.61;97615.28;5119722;28;950;-78
2022/02/17 00:11:22;;;;;;;;;;;;;;;22.13;26.44;97612.00;5128528;27;1309;-78
2022/02/17 00:13:48;;;;;;;;;;;;;;;22.11;26.55;97611.66;5129352;27;1507;-79
2022/02/17 00:16:13;;;;;;;;;;;;;;;22.07;26.55;97608.13;5132559;27;1572;-79
2022/02/17 00:18:39;;;;;;;;;;;;;;;22.02;26.94;97608.69;5128762;27;1890;-79
2022/02/17 00:21:04;;;;;;;;;;;;;;;22.54;26.07;97610.16;5128740;27;1462;-79
2022/02/17 00:23:30;;;;;;;;;;;;;;;22.55;26.30;97611.72;5130277;27;1463;-78
2022/02/17 00:25:55;;;;;;;;;;;;;;;22.07;26.58;97610.94;5132909;27;1532;-79
2022/02/17 00:28:21;;;;;;;;;;;;;;;22.13;26.79;97605.53;5130535;27;1514;-78
2022/02/17 00:30:46;;;;;;;;;;;;;;;22.19;26.88;97601.66;5079718;28;1636;-78
2022/02/17 00:33:12;;;;;;;;;;;;;;;22.61;26.02;97609.88;5047929;28;2069;-79
2022/02/17 00:35:39;;;;;;;;;;;;;;;22.71;25.79;97591.66;5025242;28;988;-79
2022/02/17 00:38:05;;;;;;;;;;;;;;;22.24;26.68;97598.25;5055217;28;1910;-79
2022/02/17 00:40:30;;;;;;;;;;;;;;;22.17;26.53;97604.16;5058514;28;973;-79
2022/02/17 00:42:56;;;;;;;;;;;;;;;21.95;26.90;97594.78;5038217;28;1005;-79
2022/02/17 00:45:22;;;;;;;;;;;;;;;22.38;26.59;97590.47;5058038;28;1005;-79
2022/02/17 00:47:47;;;;;;;;;;;;;;;22.62;26.01;97594.44;5039233;28;979;-79
2022/02/17 00:50:13;;;;;;;;;;;;;;;22.26;26.63;97583.59;5024084;28;1266;-79
2022/02/17 00:52:38;;;;;;;;;;;;;;;22.08;26.74;97575.72;5039201;28;1643;-79
2022/02/17 00:55:04;;;;;;;;;;;;;;;22.06;26.73;97573.31;5056773;28;1049;-78
2022/02/17 00:57:29;;;;;;;;;;;;;;;22.09;27.48;97569.59;5056150;28;1266;-77
2022/02/17 00:59:55;;;;;;;;;;;;;;;22.50;26.39;97564.13;5039391;28;1972;-78
2022/02/17 01:02:20;;;;;;;;;;;;;;;22.40;26.25;97556.78;5060426;28;1659;-78
2022/02/17 01:04:46;;;;;;;;;;;;;;;22.23;26.83;97548.50;5090481;28;1608;-79
2022/02/17 01:07:11;;;;;;;;;;;;;;;21.98;26.98;97557.06;5102129;28;965;-78
2022/02/17 01:09:37;;;;;;;;;;;;;;;21.99;27.04;97553.75;5100167;28;1124;-78
2022/02/17 01:12:03;;;;;;;;;;;;;;;22.50;26.84;97556.41;5096847;28;958;-79
2022/02/17 01:14:30;;;;;;;;;;;;;;;22.65;26.41;97553.81;5095702;28;1234;-79
2022/02/17 01:16:56;;;;;;;;;;;;;;;22.28;26.86;97545.06;5096825;28;1130;-78
2022/02/17 01:19:21;;;;;;;;;;;;;;;22.09;26.95;97540.47;5095923;28;1897;-78
2022/02/17 01:21:49;;;;;;;;;;;;;;;22.03;27.20;97539.47;5080373;28;1281;-79
2022/02/17 01:24:14;;;;;;;;;;;;;;;22.54;26.86;97544.94;5018988;28;1131;-78
2022/02/17 01:26:42;;;;;;;;;;;;;;;22.68;26.16;97546.41;5016705;28;985;-78
2022/02/17 01:29:13;;;;;;;;;;;;;;;22.27;26.75;97540.63;5015266;28;1120;-78
2022/02/17 01:31:39;;;;;;;;;;;;;;;22.08;26.61;97530.38;5001024;28;1396;-79
2022/02/17 01:34:09;;;;;;;;;;;;;;;21.90;27.11;97521.72;5015390;28;1137;-79
2022/02/17 01:36:37;;;;;;;;;;;;;;;22.31;26.94;97529.97;5016593;28;1257;-78
2022/02/17 01:39:03;;;;;;;;;;;;;;;22.67;26.39;97522.94;4998993;28;1955;-79
2022/02/17 01:41:28;;;;;;;;;;;;;;;22.01;26.97;97522.13;5000881;28;1317;-78
2022/02/17 01:44:02;;;;;;;;;;;;;;;21.84;27.13;97504.53;5018233;28;1095;-78
2022/02/17 01:46:35;;;;;;;;;;;;;;;21.85;27.29;97509.72;5037197;28;1025;-79
2022/02/17 01:49:01;;;;;;;;;;;;;;;22.31;26.60;97512.94;5019126;28;1103;-79
2022/02/17 01:51:26;;;;;;;;;;;;;;;22.48;26.35;97512.75;5003883;28;1286;-79
2022/02/17 01:53:52;;;;;;;;;;;;;;;22.01;26.81;97505.13;5015375;28;1147;-79
2022/02/17 01:56:18;;;;;;;;;;;;;;;21.90;26.92;97504.72;5002645;28;1207;-78
2022/02/17 01:58:43;;;;;;;;;;;;;;;21.92;26.80;97502.25;5004090;28;1899;-79
2022/02/17 02:01:17;;;;;;;;;;;;;;;22.28;26.74;97502.56;5023801;28;1933;-79
2022/02/17 02:03:42;;;;;;;;;;;;;;;22.54;26.05;97491.06;5065645;28;1167;-79
2022/02/17 02:06:09;;;;;;;;;;;;;;;22.63;25.81;97493.94;5044102;28;1242;-79
2022/02/17 02:08:52;;;;;;;;;;;;;;;22.26;26.00;97504.25;5042803;28;1151;-79
2022/02/17 02:11:18;;;;;;;;;;;;;;;22.01;26.55;97499.47;4993920;28;1577;-75
2022/02/17 02:13:52;;;;;;;;;;;;;;;21.78;26.96;97487.31;4999257;28;1511;-78
2022/02/17 02:16:18;;;;;;;;;;;;;;;22.02;27.03;97504.69;4984594;28;1362;-79
2022/02/17 02:18:44;;;;;;;;;;;;;;;22.29;26.29;97504.13;4998879;28;1972;-79
2022/02/17 02:21:09;;;;;;;;;;;;;;;22.28;26.29;97499.72;5001396;28;1627;-79
2022/02/17 02:23:40;;;;;;;;;;;;;;;22.01;26.64;97488.13;4951244;28;1461;-79
2022/02/17 02:26:07;;;;;;;;;;;;;;;21.91;26.59;97483.66;5040222;28;1190;-79
2022/02/17 02:28:33;;;;;;;;;;;;;;;22.08;26.58;97487.88;5022124;28;1111;-80
2022/02/17 02:31:02;;;;;;;;;;;;;;;22.45;25.89;97488.94;5040102;28;1301;-79
2022/02/17 02:33:27;;;;;;;;;;;;;;;22.42;25.71;97478.53;5038163;28;1392;-79
2022/02/17 02:35:55;;;;;;;;;;;;;;;22.13;26.23;97483.72;5003447;28;1139;-79
2022/02/17 02:38:21;;;;;;;;;;;;;;;21.94;26.31;97488.41;5073863;28;1910;-79
2022/02/17 02:40:47;;;;;;;;;;;;;;;21.94;26.51;97494.84;5044018;28;1266;-79
2022/02/17 02:43:23;;;;;;;;;;;;;;;22.33;25.86;97487.78;5006707;28;1185;-79
2022/02/17 02:45:49;;;;;;;;;;;;;;;22.36;26.10;97489.69;5024026;28;1265;-78
2022/02/17 02:48:16;;;;;;;;;;;;;;;21.97;26.43;97496.00;5021170;28;1382;-79
2022/02/17 02:50:42;;;;;;;;;;;;;;;21.83;26.28;97489.56;5024385;28;1205;-78
2022/02/17 02:53:10;;;;;;;;;;;;;;;21.92;26.88;97507.91;5004705;28;1123;-79
2022/02/17 02:55:36;;;;;;;;;;;;;;;22.42;25.75;97489.09;4984820;28;1222;-78
2022/02/17 02:58:01;;;;;;;;;;;;;;;22.54;25.45;97502.41;4981660;28;1984;-77
2022/02/17 03:00:27;;;;;;;;;;;;;;;22.19;25.68;97499.66;4980984;28;1202;-79
2022/02/17 03:02:52;;;;;;;;;;;;;;;21.98;26.15;97500.41;4953095;28;1117;-78
2022/02/17 03:05:18;;;;;;;;;;;;;;;21.97;26.22;97502.44;4942761;29;1021;-79
2022/02/17 03:07:44;;;;;;;;;;;;;;;22.28;26.27;97504.59;4942536;29;1033;-79
2022/02/17 03:10:09;;;;;;;;;;;;;;;22.50;25.58;97513.09;4961153;29;1016;-79
2022/02/17 03:12:35;;;;;;;;;;;;;;;22.40;25.37;97505.78;4943558;29;1476;-79
2022/02/17 03:15:01;;;;;;;;;;;;;;;22.02;26.27;97506.72;4960618;29;938;-79
2022/02/17 03:17:28;;;;;;;;;;;;;;;21.83;26.61;97509.41;4962721;28;1251;-79
2022/02/17 03:19:53;;;;;;;;;;;;;;;22.25;25.97;97509.13;4970542;28;1906;-78
2022/02/17 03:22:19;;;;;;;;;;;;;;;22.62;25.55;97503.69;5001765;28;1293;-79
2022/02/17 03:24:45;;;;;;;;;;;;;;;22.43;25.28;97507.66;5001795;28;1356;-79
2022/02/17 03:27:11;;;;;;;;;;;;;;;22.07;26.07;97511.78;5052787;28;1175;-79
2022/02/17 03:29:36;;;;;;;;;;;;;;;21.95;26.05;97512.63;5021365;28;987;-78
2022/02/17 03:32:05;;;;;;;;;;;;;;;22.01;26.45;97507.97;5022715;28;1095;-79
2022/02/17 03:34:31;;;;;;;;;;;;;;;22.31;25.97;97501.63;5012847;28;1375;-79
2022/02/17 03:36:57;;;;;;;;;;;;;;;22.55;25.36;97507.59;5002475;28;1471;-79
2022/02/17 03:39:23;;;;;;;;;;;;;;;22.22;25.61;97497.91;5001140;28;1950;-79
2022/02/17 03:41:54;;;;;;;;;;;;;;;22.10;25.72;97497.53;5019507;28;990;-78
2022/02/17 03:44:22;;;;;;;;;;;;;;;21.83;26.37;97500.91;5001072;28;1284;-79
2022/02/17 03:46:50;;;;;;;;;;;;;;;22.11;26.24;97503.97;5002770;28;1099;-78
2022/02/17 03:49:25;;;;;;;;;;;;;;;22.40;25.83;97497.28;4978338;28;1234;-78
2022/02/17 03:51:50;;;;;;;;;;;;;;;21.99;26.30;97490.66;4979734;28;1448;-79
2022/02/17 03:54:18;;;;;;;;;;;;;;;21.98;25.92;97494.72;4978334;28;1112;-79
2022/02/17 03:56:53;;;;;;;;;;;;;;;21.78;26.77;97486.53;4980426;28;1369;-78
2022/02/17 03:59:25;;;;;;;;;;;;;;;22.03;26.26;97485.66;4978139;28;1883;-79
2022/02/17 04:01:51;;;;;;;;;;;;;;;22.30;25.60;97488.69;4993619;28;1519;-79
2022/02/17 04:04:21;;;;;;;;;;;;;;;22.28;25.38;97485.53;4981295;28;1142;-78
2022/02/17 04:06:47;;;;;;;;;;;;;;;21.88;26.16;97478.91;5006833;28;1289;-78
2022/02/17 04:09:12;;;;;;;;;;;;;;;21.78;25.98;97487.31;5017376;28;1196;-79
2022/02/17 04:11:38;;;;;;;;;;;;;;;21.84;26.21;97479.81;5010498;28;1243;-78
2022/02/17 04:14:04;;;;;;;;;;;;;;;22.16;26.11;97477.88;5036864;28;1130;-79
2022/02/17 04:16:47;;;;;;;;;;;;;;;22.46;25.60;97478.41;5021959;28;1249;-79
2022/02/17 04:19:27;;;;;;;;;;;;;;;22.09;25.90;97473.25;4983128;28;1918;-79
2022/02/17 04:22:15;;;;;;;;;;;;;;;21.78;26.31;97475.22;5022747;28;1041;-79
2022/02/17 04:24:49;;;;;;;;;;;;;;;21.74;26.32;97474.53;4997600;28;1574;-79
2022/02/17 04:27:19;;;;;;;;;;;;;;;22.25;25.80;97475.13;4998032;28;1163;-79
2022/02/17 04:30:05;;;;;;;;;;;;;;;22.39;25.43;97470.97;4998016;28;1105;-79
2022/02/17 04:32:31;;;;;;;;;;;;;;;22.04;25.61;97467.41;4997908;28;1179;-79
2022/02/17 04:34:57;;;;;;;;;;;;;;;22.03;25.56;97462.97;4978411;28;1347;-79
2022/02/17 04:37:23;;;;;;;;;;;;;;;22.17;25.79;97468.13;4978888;28;1119;-79
2022/02/17 04:39:48;;;;;;;;;;;;;;;22.45;25.47;97456.97;4958325;29;1915;-79
2022/02/17 04:42:20;;;;;;;;;;;;;;;22.33;25.05;97462.28;4975790;28;1068;-78
2022/02/17 04:44:51;;;;;;;;;;;;;;;21.84;26.06;97457.16;4948167;29;1136;-79
2022/02/17 04:47:17;;;;;;;;;;;;;;;21.83;25.96;97449.94;4959525;29;988;-79
2022/02/17 04:49:43;;;;;;;;;;;;;;;21.90;26.28;97448.09;4958308;29;925;-79
2022/02/17 04:52:08;;;;;;;;;;;;;;;22.38;25.66;97454.41;4943814;29;1185;-79
2022/02/17 04:54:36;;;;;;;;;;;;;;;22.29;25.40;97458.78;4957776;29;1146;-79
2022/02/17 04:57:03;;;;;;;;;;;;;;;22.02;25.81;97455.72;5023792;28;917;-79
2022/02/17 04:59:32;;;;;;;;;;;;;;;21.98;25.81;97455.06;5046859;28;1921;-79
2022/02/17 05:01:58;;;;;;;;;;;;;;;22.29;26.20;97460.81;5067105;28;1546;-78
2022/02/17 05:04:43;;;;;;;;;;;;;;;22.50;25.51;97453.53;5055211;28;1150;-79
2022/02/17 05:07:14;;;;;;;;;;;;;;;22.19;26.08;97454.31;5053406;28;1103;-79
2022/02/17 05:09:40;;;;;;;;;;;;;;;22.06;26.15;97445.03;5053815;28;1050;-79
2022/02/17 05:12:05;;;;;;;;;;;;;;;22.05;26.01;97443.47;5051146;28;1713;-79
2022/02/17 05:14:32;;;;;;;;;;;;;;;22.31;26.26;97442.09;5038703;28;1222;-78
2022/02/17 05:16:57;;;;;;;;;;;;;;;22.48;26.09;97431.31;5056781;28;1850;-79
2022/02/17 05:19:26;;;;;;;;;;;;;;;22.21;26.07;97429.13;5038876;28;1910;-79
2022/02/17 05:22:10;;;;;;;;;;;;;;;22.10;26.28;97426.69;5056963;28;1024;-79
2022/02/17 05:25:01;;;;;;;;;;;;;;;21.94;26.74;97426.09;5032588;28;1438;-79
2022/02/17 05:27:47;;;;;;;;;;;;;;;21.99;26.99;97434.00;5055234;28;996;-79
2022/02/17 05:30:40;;;;;;;;;;;;;;;22.25;26.57;97435.44;4998325;28;1013;-79
2022/02/17 05:33:24;;;;;;;;;;;;;;;22.24;26.57;97428.22;5034446;28;1795;-80
2022/02/17 05:36:17;;;;;;;;;;;;;;;22.12;26.84;97431.88;5037218;28;1229;-79
2022/02/17 05:39:08;;;;;;;;;;;;;;;21.79;27.10;97428.66;5019189;28;1985;-78
2022/02/17 05:41:48;;;;;;;;;;;;;;;21.91;27.24;97427.00;5038070;28;1294;-79
2022/02/17 05:44:14;;;;;;;;;;;;;;;22.46;26.19;97421.72;5037732;28;1028;-79
2022/02/17 05:46:40;;;;;;;;;;;;;;;22.40;26.25;97434.91;5058370;28;999;-80
2022/02/17 05:49:05;;;;;;;;;;;;;;;22.16;26.56;97426.88;5036272;28;1096;-78
2022/02/17 05:51:31;;;;;;;;;;;;;;;21.93;27.12;97427.34;5037768;28;1022;-80
2022/02/17 05:53:56;;;;;;;;;;;;;;;21.99;27.06;97422.66;4976776;28;988;-80
2022/02/17 05:56:22;;;;;;;;;;;;;;;22.49;26.24;97409.44;4984981;28;2059;-79
2022/02/17 05:58:47;;;;;;;;;;;;;;;22.40;26.37;97417.91;4976587;28;1899;-78
2022/02/17 06:01:13;;;;;;;;;;;;;;;21.99;27.17;97419.81;4988334;28;1039;-78
2022/02/17 06:03:38;;;;;;;;;;;;;;;22.07;26.65;97418.28;4997054;28;991;-79
2022/02/17 06:06:04;;;;;;;;;;;;;;;22.03;26.75;97400.66;4982065;28;1046;-79
2022/02/17 06:08:29;;;;;;;;;;;;;;;22.28;27.02;97406.19;4996654;28;998;-79
2022/02/17 06:10:55;;;;;;;;;;;;;;;22.62;26.30;97401.63;4997129;28;2063;-78
2022/02/17 06:13:20;;;;;;;;;;;;;;;22.21;26.74;97400.78;5005926;28;1016;-80
2022/02/17 06:15:47;;;;;;;;;;;;;;;22.17;26.99;97394.47;5018166;28;1268;-79
2022/02/17 06:18:13;;;;;;;;;;;;;;;21.98;27.16;97392.75;5014625;28;1981;-79
2022/02/17 06:20:38;;;;;;;;;;;;;;;22.05;27.24;97392.47;5018234;28;1037;-79
2022/02/17 06:23:04;;;;;;;;;;;;;;;22.35;26.82;97388.09;5015162;28;1063;-79
2022/02/17 06:25:29;;;;;;;;;;;;;;;22.24;26.75;97382.88;5065013;28;1017;-79
2022/02/17 06:27:55;;;;;;;;;;;;;;;22.09;27.02;97376.13;5117457;28;949;-79
2022/02/17 06:30:20;;;;;;;;;;;;;;;21.97;27.13;97374.19;5120432;28;894;-79
2022/02/17 06:32:49;;;;;;;;;;;;;;;22.10;27.22;97372.88;5118128;28;969;-79
2022/02/17 06:35:18;;;;;;;;;;;;;;;22.33;26.64;97380.09;5119346;28;943;-79
2022/02/17 06:37:44;;;;;;;;;;;;;;;22.40;26.49;97370.50;5117782;28;988;-79
2022/02/17 06:40:10;;;;;;;;;;;;;;;22.22;26.58;97371.19;5119448;28;1977;-78
2022/02/17 06:42:36;;;;;;;;;;;;;;;22.10;26.79;97374.88;5119800;28;913;-79
2022/02/17 06:45:02;;;;;;;;;;;;;;;22.26;26.61;97363.34;5134198;27;1689;-79
2022/02/17 06:47:27;;;;;;;;;;;;;;;22.40;27.00;97364.03;5122496;28;956;-78
2022/02/17 06:49:53;;;;;;;;;;;;;;;22.52;26.48;97368.81;5039333;28;997;-79
2022/02/17 06:52:18;;;;;;;;;;;;;;;22.22;26.74;97351.34;5039596;28;1146;-80
2022/02/17 06:54:44;;;;;;;;;;;;;;;22.10;26.81;97349.38;5039224;28;1042;-79
2022/02/17 06:57:10;;;;;;;;;;;;;;;21.94;27.03;97353.22;5020408;28;978;-78
2022/02/17 06:59:36;;;;;;;;;;;;;;;22.29;27.28;97351.09;5018606;28;1989;-77
2022/02/17 07:02:01;;;;;;;;;;;;;;;22.60;26.47;97347.44;5020180;28;1052;-79
2022/02/17 07:04:26;;;;;;;;;;;;;;;22.25;26.95;97356.09;4969072;28;1041;-78
2022/02/17 07:06:55;;;;;;;;;;;;;;;22.15;27.06;97350.84;5045216;28;1007;-79
2022/02/17 07:09:20;;;;;;;;;;;;;;;21.81;27.43;97358.97;5058750;28;1031;-79
2022/02/17 07:11:45;;;;;;;;;;;;;;;21.95;27.07;97359.69;5060139;28;1043;-78
2022/02/17 07:14:11;;;;;;;;;;;;;;;22.39;26.95;97366.09;5058102;28;1050;-79
2022/02/17 07:16:37;;;;;;;;;;;;;;;22.68;26.39;97365.72;5019661;28;1096;-79
2022/02/17 07:19:02;;;;;;;;;;;;;;;22.26;27.06;97369.00;5018232;28;1898;-78
2022/02/17 07:21:28;;;;;;;;;;;;;;;22.22;26.60;97359.84;5019882;28;1031;-76
2022/02/17 07:23:55;;;;;;;;;;;;;;;22.09;26.66;97359.13;5018288;28;994;-78
2022/02/17 07:26:20;;;;;;;;;;;;;;;22.00;27.28;97356.25;5020036;28;978;-79
2022/02/17 07:28:46;;;;;;;;;;;;;;;22.48;26.87;97362.47;5063288;28;972;-78
2022/02/17 07:31:12;;;;;;;;;;;;;;;22.63;26.67;97358.59;5079789;28;1119;-79
2022/02/17 07:33:37;;;;;;;;;;;;;;;22.22;26.98;97362.69;5077992;28;1010;-79
2022/02/17 07:36:03;;;;;;;;;;;;;;;22.04;27.29;97356.91;5085218;28;1761;-78
2022/02/17 07:38:28;;;;;;;;;;;;;;;22.05;27.15;97349.97;5079644;28;1906;-79
2022/02/17 07:40:54;;;;;;;;;;;;;;;22.00;27.28;97347.75;5048478;28;1685;-79
2022/02/17 07:43:19;;;;;;;;;;;;;;;22.26;27.66;97352.00;5056861;28;1225;-80
2022/02/17 07:45:45;;;;;;;;;;;;;;;22.52;27.16;97351.78;5019595;28;1287;-79
2022/02/17 07:48:11;;;;;;;;;;;;;;;22.44;26.81;97353.34;5017186;28;931;-79
2022/02/17 07:50:36;;;;;;;;;;;;;;;22.20;27.28;97348.19;5020602;28;975;-79
2022/02/17 07:53:02;;;;;;;;;;;;;;;22.15;26.96;97351.63;5019221;28;1156;-79
2022/02/17 07:55:28;;;;;;;;;;;;;;;21.99;27.53;97340.50;5040781;28;1133;-80
2022/02/17 07:57:53;;;;;;;;;;;;;;;22.30;27.25;97352.66;5037659;28;985;-79
2022/02/17 08:00:19;;;;;;;;;;;;;;;22.72;26.60;97354.22;5039877;28;1902;-79
2022/02/17 08:02:44;;;;;;;;;;;;;;;22.57;26.75;97354.03;5037762;28;963;-79
2022/02/17 08:05:10;;;;;;;;;;;;;;;22.20;27.16;97353.09;5000331;28;1324;-79
2022/02/17 08:07:38;;;;;;;;;;;;;;;22.10;27.25;97343.72;4981961;28;998;-80
2022/02/17 08:10:04;;;;;;;;;;;;;;;22.20;27.44;97342.53;4980185;28;923;-78
2022/02/17 08:12:29;;;;;;;;;;;;;;;22.39;27.05;97343.41;4988760;28;956;-79
2022/02/17 08:14:58;;;;;;;;;;;;;;;22.53;27.16;97333.53;4998868;28;1084;-80
2022/02/17 08:17:23;;;;;;;;;;;;;;;22.24;27.01;97337.53;4997814;28;1242;-79
2022/02/17 08:19:49;;;;;;;;;;;;;;;22.15;27.25;97334.63;5002366;28;1914;-79
2022/02/17 08:22:14;;;;;;;;;;;;;;;21.98;27.52;97324.78;4987452;28;1847;-80
2022/02/17 08:24:40;;;;;;;;;;;;;;;22.00;27.51;97327.91;4998955;28;981;-78
2022/02/17 08:27:05;;;;;;;;;;;;;;;22.15;27.91;97328.97;4999422;28;1126;-79
2022/02/17 08:29:34;;;;;;;;;;;;;;;22.39;27.36;97315.06;4997877;28;1067;-79
2022/02/17 08:31:59;;;;;;;;;;;;;;;22.57;26.98;97320.00;4979078;28;1066;-79
2022/02/17 08:34:25;;;;;;;;;;;;;;;22.68;26.38;97308.22;4978667;28;995;-79
2022/02/17 08:36:52;;;;;;;;;;;;;;;22.21;27.21;97321.44;4957833;29;1765;-79
2022/02/17 08:39:17;;;;;;;;;;;;;;;22.07;27.61;97310.63;4958806;29;1902;-80
2022/02/17 08:41:43;;;;;;;;;;;;;;;22.02;27.69;97320.56;4960731;29;987;-78
2022/02/17 08:44:08;;;;;;;;;;;;;;;22.05;27.46;97307.47;4959378;28;1014;-78
2022/02/17 08:46:34;;;;;;;;;;;;;;;22.13;27.20;97314.50;4960816;29;1023;-78
2022/02/17 08:48:59;;;;;;;;;;;;;;;22.39;27.33;97308.63;4958574;29;1002;-79
2022/02/17 08:51:29;;;;;;;;;;;;;;;22.68;26.68;97305.38;4960219;29;1822;-79
2022/02/17 08:53:54;;;;;;;;;;;;;;;22.29;27.05;97294.41;5005097;28;1702;-79
2022/02/17 08:56:20;;;;;;;;;;;;;;;22.09;27.20;97308.16;5020316;28;1223;-79
2022/02/17 08:58:45;;;;;;;;;;;;;;;21.90;27.60;97306.47;5016555;28;1984;-79
2022/02/17 09:01:11;;;;;;;;;;;;;;;22.02;27.52;97319.72;5019069;28;1046;-79
2022/02/17 09:03:36;;;;;;;;;;;;;;;21.97;27.99;97311.88;5021715;28;951;-80
2022/02/17 09:06:02;;;;;;;;;;;;;;;22.53;27.14;97322.19;5038018;28;1738;-77
2022/02/17 09:08:27;;;;;;;;;;;;;;;22.38;27.21;97329.69;5076157;28;1188;-79
2022/02/17 09:10:54;;;;;;;;;;;;;;;22.16;27.29;97319.22;5078389;28;968;-79
2022/02/17 09:13:20;;;;;;;;;;;;;;;21.88;27.54;97311.81;5080943;28;1559;-79
2022/02/17 09:15:45;;;;;;;;;;;;;;;21.98;27.62;97314.22;5086892;28;1527;-79
2022/02/17 09:18:12;;;;;;;;;;;;;;;22.09;27.34;97319.47;5065754;28;1985;-79
2022/02/17 09:20:38;;;;;;;;;;;;;;;22.38;27.08;97307.00;5067718;28;1548;-78
2022/02/17 09:23:04;;;;;;;;;;;;;;;22.57;27.01;97308.66;5046531;28;1381;-77
2022/02/17 09:25:29;;;;;;;;;;;;;;;22.24;26.93;97303.50;5087409;28;1294;-79
2022/02/17 09:27:54;;;;;;;;;;;;;;;22.20;27.14;97297.19;5049856;28;1549;-76
2022/02/17 09:30:20;;;;;;;;;;;;;;;22.14;27.31;97286.94;5081444;28;1530;-78
2022/02/17 09:32:45;;;;;;;;;;;;;;;22.11;27.64;97280.16;5035909;28;950;-78
2022/02/17 09:35:12;;;;;;;;;;;;;;;22.64;26.97;97274.34;5038019;28;953;-80
2022/02/17 09:37:38;;;;;;;;;;;;;;;22.76;26.70;97264.91;5035869;28;984;-79
2022/02/17 09:40:04;;;;;;;;;;;;;;;22.16;27.44;97267.41;5037423;28;1906;-80
2022/02/17 09:42:36;;;;;;;;;;;;;;;21.95;27.48;97261.31;5036412;28;956;-79
2022/02/17 09:45:09;;;;;;;;;;;;;;;22.02;27.57;97248.91;5038261;28;940;-78
2022/02/17 09:47:37;;;;;;;;;;;;;;;21.99;27.66;97242.16;5052707;28;973;-78
2022/02/17 09:50:07;;;;;;;;;;;;;;;22.18;27.76;97248.72;5043600;28;957;-79
2022/02/17 09:52:32;;;;;;;;;;;;;;;22.48;26.83;97249.09;5079401;28;1040;-78
2022/02/17 09:54:58;;;;;;;;;;;;;;;22.48;26.81;97243.41;5092568;28;1082;-79
2022/02/17 09:57:25;;;;;;;;;;;;;;;22.03;27.81;97230.69;5096119;28;916;-78
2022/02/17 09:59:51;;;;;;;;;;;;;;;21.98;27.49;97234.13;5062027;28;2004;-79
2022/02/17 10:02:23;;;;;;;;;;;;;;;22.00;27.49;97225.94;5096776;28;898;-79
2022/02/17 10:04:56;;;;;;;;;;;;;;;22.28;27.62;97219.16;5117431;28;927;-77
2022/02/17 10:07:29;;;;;;;;;;;;;;;22.58;26.67;97219.50;5118892;28;931;-78
2022/02/17 10:10:03;;;;;;;;;;;;;;;22.30;26.93;97210.97;5118447;28;887;-78
2022/02/17 10:12:47;;;;;;;;;;;;;;;22.11;27.31;97198.00;5118910;28;938;-79
2022/02/17 10:15:12;;;;;;;;;;;;;;;22.11;27.31;97203.66;5119005;28;1855;-79
2022/02/17 10:17:38;;;;;;;;;;;;;;;22.16;27.20;97205.09;5121003;27;2149;-79
2022/02/17 10:20:04;;;;;;;;;;;;;;;22.33;27.23;97198.69;5116777;27;1989;-79
2022/02/17 10:22:34;;;;;;;;;;;;;;;22.62;26.67;97192.56;5081312;27;1630;-78
2022/02/17 10:25:00;;;;;;;;;;;;;;;22.29;26.92;97181.03;5132161;27;1483;-79
2022/02/17 10:27:29;;;;;;;;;;;;;;;22.14;27.07;97182.91;5134320;27;1512;-78
2022/02/17 10:30:01;;;;;;;;;;;;;;;22.26;27.16;97164.19;5116947;27;1483;-79
2022/02/17 10:32:26;;;;;;;;;;;;;;;22.04;27.29;97162.22;5131758;27;1863;-78
2022/02/17 10:35:05;;;;;;;;;;;;;;;21.97;27.25;97150.41;5131120;27;1720;-79
2022/02/17 10:37:49;;;;;;;;;;;;;;;22.27;27.75;97152.38;5067709;28;1372;-79
2022/02/17 10:40:15;;;;;;;;;;;;;;;22.54;27.19;97145.19;5071179;28;1917;-80
2022/02/17 10:42:41;;;;;;;;;;;;;;;22.21;27.11;97127.97;5067818;28;1623;-78
2022/02/17 10:45:26;;;;;;;;;;;;;;;22.03;27.62;97118.16;5068834;28;1400;-80
2022/02/17 10:47:52;;;;;;;;;;;;;;;22.03;27.53;97123.03;5071212;28;1609;-77
2022/02/17 10:50:18;;;;;;;;;;;;;;;21.81;27.61;97106.13;5070856;28;1339;-80
2022/02/17 10:52:43;;;;;;;;;;;;;;;22.04;27.33;97113.28;5050794;28;1623;-79
2022/02/17 10:55:12;;;;;;;;;;;;;;;22.03;28.00;97106.84;5070374;28;1662;-79
2022/02/17 10:57:37;;;;;;;;;;;;;;;22.51;26.88;97100.75;5066141;28;1561;-79
2022/02/17 11:00:12;;;;;;;;;;;;;;;22.45;26.93;97094.94;5064329;28;1891;-79
2022/02/17 11:02:38;;;;;;;;;;;;;;;22.20;27.11;97087.50;5072575;28;1584;-78
2022/02/17 11:05:07;;;;;;;;;;;;;;;22.11;27.20;97084.66;5056714;28;1510;-78
2022/02/17 11:07:34;;;;;;;;;;;;;;;21.99;27.63;97066.53;5080375;28;1593;-79
2022/02/17 11:10:00;;;;;;;;;;;;;;;22.04;27.24;97067.97;5058426;28;1043;-78
2022/02/17 11:12:25;;;;;;;;;;;;;;;22.28;27.45;97071.00;5058558;28;917;-78
2022/02/17 11:14:51;;;;;;;;;;;;;;;22.52;27.11;97068.28;5028630;28;1921;-78
2022/02/17 11:17:16;;;;;;;;;;;;;;;22.29;26.95;97055.56;5038409;28;1250;-78
2022/02/17 11:19:42;;;;;;;;;;;;;;;22.16;27.18;97054.91;5038005;28;1906;-79
2022/02/17 11:22:07;;;;;;;;;;;;;;;22.13;27.38;97045.34;4999044;28;1062;-79
2022/02/17 11:24:45;;;;;;;;;;;;;;;21.82;27.72;97056.75;4998960;28;897;-79
2022/02/17 11:27:11;;;;;;;;;;;;;;;22.19;27.55;97034.94;4999239;28;1033;-79
2022/02/17 11:29:38;;;;;;;;;;;;;;;22.48;26.83;97037.28;4997879;28;969;-79
2022/02/17 11:32:04;;;;;;;;;;;;;;;22.34;26.78;97041.56;4998842;28;2140;-78
2022/02/17 11:34:35;;;;;;;;;;;;;;;22.16;27.20;97041.53;4997705;28;1039;-79
2022/02/17 11:37:21;;;;;;;;;;;;;;;21.95;27.72;97037.56;4998548;28;1578;-80
2022/02/17 11:40:03;;;;;;;;;;;;;;;21.93;27.66;97033.66;4998353;28;1936;-78
2022/02/17 11:42:29;;;;;;;;;;;;;;;21.98;27.63;97030.19;4997738;28;1750;-78
2022/02/17 11:45:13;;;;;;;;;;;;;;;22.32;27.40;97027.06;5002661;28;2126;-78
2022/02/17 11:47:50;;;;;;;;;;;;;;;22.49;26.89;97026.75;5037339;28;1006;-79
2022/02/17 11:50:34;;;;;;;;;;;;;;;22.12;27.20;97023.13;5038275;28;889;-78
2022/02/17 11:53:18;;;;;;;;;;;;;;;21.92;27.58;97020.75;5054286;28;992;-80
2022/02/17 11:55:44;;;;;;;;;;;;;;;21.89;27.56;97010.34;5078170;28;1161;-79
2022/02/17 11:58:28;;;;;;;;;;;;;;;21.62;28.22;97017.56;5075685;28;1910;-80
2022/02/17 12:00:54;;;;;;;;;;;;;;;21.95;27.80;97008.47;5077807;28;1125;-79
2022/02/17 12:03:38;;;;;;;;;;;;;;;22.30;27.25;97008.97;5075407;28;1091;-78
2022/02/17 12:06:30;;;;;;;;;;;;;;;22.30;27.00;96997.63;5078432;28;1057;-79
2022/02/17 12:08:55;;;;;;;;;;;;;;;22.23;27.30;96995.91;5069255;28;1754;-80
2022/02/17 12:11:27;;;;;;;;;;;;;;;22.24;26.95;97003.16;5070595;28;991;-79
2022/02/17 12:13:53;;;;;;;;;;;;;;;22.08;27.33;96983.59;5104497;28;874;-79
2022/02/17 12:16:31;;;;;;;;;;;;;;;22.23;27.47;96984.56;5120807;28;1119;-80
2022/02/17 12:18:56;;;;;;;;;;;;;;;22.51;26.78;96965.47;5118926;28;1909;-80
2022/02/17 12:21:22;;;;;;;;;;;;;;;22.36;27.03;96970.22;5120302;28;966;-80
2022/02/17 12:23:48;;;;;;;;;;;;;;;22.16;27.52;96984.88;5119118;28;934;-79
2022/02/17 12:26:39;;;;;;;;;;;;;;;22.03;27.49;96975.75;5102572;28;1175;-79
2022/02/17 12:28:59;;;;;;;;;;;;;;;22.20;27.61;96979.84;5119197;28;953;-79
2022/02/17 12:31:37;;;;;;;;;;;;;;;22.39;27.00;96974.94;5120342;28;1102;-79
2022/02/17 12:34:04;;;;;;;;;;;;;;;22.31;26.92;96980.13;5133799;27;1909;-80
2022/02/17 12:36:35;;;;;;;;;;;;;;;21.97;27.19;96972.75;5140061;27;1044;-80
2022/02/17 12:39:04;;;;;;;;;;;;;;;22.01;27.11;96969.75;5138918;27;1906;-79
2022/02/17 12:41:29;;;;;;;;;;;;;;;22.01;27.01;96961.25;5102982;27;1023;-77
2022/02/17 12:43:55;;;;;;;;;;;;;;;22.05;27.44;96984.53;5139407;27;1074;-79
2022/02/17 12:46:21;;;;;;;;;;;;;;;22.48;26.89;96957.13;5140478;27;1065;-79
2022/02/17 12:48:46;;;;;;;;;;;;;;;22.67;26.55;96950.13;5139111;27;928;-80
2022/02/17 12:51:33;;;;;;;;;;;;;;;22.20;26.92;96960.00;5130499;27;1790;-83
2022/02/17 12:54:35;;;;;;;;;;;;;;;22.00;27.24;96954.00;5134011;28;937;-83
2022/02/17 12:57:19;;;;;;;;;;;;;;;21.88;27.33;96949.31;5136365;28;838;-81
2022/02/17 12:59:45;;;;;;;;;;;;;;;22.28;26.81;96947.09;5134190;28;1989;-80
2022/02/17 13:02:10;;;;;;;;;;;;;;;22.49;26.74;96945.31;5135781;28;1012;-84
2022/02/17 13:04:39;;;;;;;;;;;;;;;22.15;27.02;96949.31;5133659;28;910;-84
2022/02/17 13:07:12;;;;;;;;;;;;;;;22.16;26.72;96950.88;5136191;28;987;-81